VTBS/BKK METAR and TAF weather

Enter ICAO airport designator
Station Type Date Time Source
VTBS METAR 2019/10/15 03:30 UTC NOAA

VTBS 150330Z 07012KT 9999 FEW030 31/22 Q1013 NOSIG


Station Type Date Time Source
VTBS Decoded METAR 2019/10/15 03:30 UTC NOAA

Chon Buri, Thailand (VTBS) 13-22N 100-59E 2M
Oct 14, 2019 - 11:30 PM EDT / 2019.10.15 0330 UTC
Wind: from the ENE (070 degrees) at 14 MPH (12 KT):0
Visibility: greater than 7 mile(s):0
Sky conditions: mostly clear
Temperature: 87 F (31 C)
Heat index: 92.3 F (33.5 C):1
Dew Point: 71 F (22 C)
Relative Humidity: 58%
Pressure (altimeter): 29.91 in. Hg (1013 hPa)
ob: VTBS 150330Z 07012KT 9999 FEW030 31/22 Q1013 NOSIG
cycle: 3

Station Type Date Time Source
VTBS TAF 2019/10/14 18:00 UTC NOAA

TAF VTBS 141700Z 1418/1524 01005KT 9999 FEW020
BECMG 1501/1503 07008KT
TEMPO 1508/1512 10010G25KT 5000 TSRA FEW018CB SCT030 BKN100
BECMG 1518/1520 01005KT

Example: see airport list